LTAC/ESB METAR and TAF weather

Enter ICAO airport designator
Station Type Date Time Source
LTAC METAR 2019/04/18 10:20 UTC NOAA

LTAC 181020Z VRB05KT 9999 SCT040 10/M02 Q1016 NOSIG


Station Type Date Time Source
LTAC Decoded METAR 2019/04/18 10:20 UTC NOAA

Ankara / Esenboga, Turkey (LTAC) 40-07N 032-59E 949M
Apr 18, 2019 - 06:20 AM EDT / 2019.04.18 1020 UTC
Wind: Variable at 6 MPH (5 KT):0
Visibility: greater than 7 mile(s):0
Sky conditions: partly cloudy
Temperature: 50 F (10 C)
Dew Point: 28 F (-2 C)
Relative Humidity: 42%
Pressure (altimeter): 30.00 in. Hg (1016 hPa)
ob: LTAC 181020Z VRB05KT 9999 SCT040 10/M02 Q1016 NOSIG
cycle: 10

Station Type Date Time Source
LTAC TAF 2019/04/18 06:03 UTC NOAA

TAF TAF LTAC 180440Z 1806/1906 VRB02KT 9999 SCT040 PROB40
TEMPO 1812/1816 35015KT -TSRA FEW025CB BKN030

Example: see airport list